Time;durP1;ratioP1;P1;durP2;ratioP2;P2;SDS_P1;SDS_P2;PMS_P1;PMS_P2;Temp;Humidity;BMP_temperature;BMP_pressure;BME280_temperature;BME280_humidity;BME280_pressure;Samples;Min_cycle;Max_cycle;Signal;HPM_P1;HPM_P2
2022/09/05 00:02:27;;;;;;;2.50;1.90;;;;;;;;;;2347505;57;21111;-76
2022/09/05 00:04:59;;;;;;;4.18;2.00;;;;;;;;;;2343154;57;21054;-77
2022/09/05 00:07:30;;;;;;;4.33;2.00;;;;;;;;;;2347418;57;21122;-76
2022/09/05 00:10:01;;;;;;;3.87;1.85;;;;;;;;;;2347405;57;21042;-76
2022/09/05 00:12:29;;;;;;;2.30;1.70;;;;;;;;;;2347297;57;21102;-77
2022/09/05 00:15:03;;;;;;;3.80;1.92;;;;;;;;;;2347043;57;21047;-77
2022/09/05 00:17:33;;;;;;;4.53;2.00;;;;;;;;;;2346998;57;21114;-76
2022/09/05 00:20:06;;;;;;;5.37;2.15;;;;;;;;;;2347327;57;21699;-73
2022/09/05 00:22:37;;;;;;;2.83;1.60;;;;;;;;;;2347730;57;21047;-76
2022/09/05 00:25:11;;;;;;;3.45;1.73;;;;;;;;;;2347247;57;21107;-76
2022/09/05 00:27:45;;;;;;;3.12;2.10;;;;;;;;;;2346954;57;21605;-76
2022/09/05 00:30:14;;;;;;;2.25;1.90;;;;;;;;;;2347458;57;21616;-76
2022/09/05 00:32:48;;;;;;;2.00;1.65;;;;;;;;;;2594795;53;21071;-73
2022/09/05 00:35:22;;;;;;;3.15;1.85;;;;;;;;;;2347268;57;21114;-76
2022/09/05 00:37:50;;;;;;;2.17;1.75;;;;;;;;;;2347378;57;21047;-76
2022/09/05 00:40:22;;;;;;;3.25;2.15;;;;;;;;;;2594592;53;21561;-75
2022/09/05 00:42:52;;;;;;;6.22;1.90;;;;;;;;;;2347131;57;21139;-76
2022/09/05 00:45:24;;;;;;;2.47;1.95;;;;;;;;;;2594032;53;21066;-73
2022/09/05 00:47:54;;;;;;;3.35;1.95;;;;;;;;;;2594579;53;21114;-76
2022/09/05 00:50:25;;;;;;;2.95;2.03;;;;;;;;;;2347217;57;21540;-76
2022/09/05 00:52:56;;;;;;;3.20;2.12;;;;;;;;;;2347406;57;21105;-76
2022/09/05 00:55:27;;;;;;;3.75;2.10;;;;;;;;;;2346900;57;21134;-76
2022/09/05 00:58:08;;;;;;;2.67;1.95;;;;;;;;;;2594576;53;21043;-76
2022/09/05 01:00:44;;;;;;;4.68;2.05;;;;;;;;;;2347206;57;21620;-76
2022/09/05 01:03:17;;;;;;;3.95;2.22;;;;;;;;;;2594720;53;21046;-76
2022/09/05 01:06:22;;;;;;;2.75;2.20;;;;;;;;;;2594082;53;21055;-76
2022/09/05 01:11:36;;;;;;;3.78;2.00;;;;;;;;;;2356347;57;22137;-74
2022/09/05 01:14:09;;;;;;;3.67;2.30;;;;;;;;;;2609285;51;21101;-76
2022/09/05 01:17:04;;;;;;;2.90;1.92;;;;;;;;;;2332112;57;21137;-75
2022/09/05 01:19:38;;;;;;;3.00;2.12;;;;;;;;;;2332471;57;21054;-71
2022/09/05 01:22:24;;;;;;;4.35;2.00;;;;;;;;;;2332188;57;21034;-74
2022/09/05 01:24:56;;;;;;;4.10;2.55;;;;;;;;;;2305591;58;21554;-74
2022/09/05 01:27:35;;;;;;;2.53;2.00;;;;;;;;;;2305009;58;21044;-74
2022/09/05 01:30:07;;;;;;;3.72;2.20;;;;;;;;;;2305871;58;21120;-74
2022/09/05 01:32:37;;;;;;;4.65;2.25;;;;;;;;;;2523380;54;21622;-73
2022/09/05 01:35:33;;;;;;;5.03;2.10;;;;;;;;;;2305849;58;21123;-74
2022/09/05 01:38:05;;;;;;;3.42;2.50;;;;;;;;;;2305703;58;21060;-71
2022/09/05 01:40:36;;;;;;;3.72;2.10;;;;;;;;;;2305713;58;21056;-75
2022/09/05 01:43:10;;;;;;;4.65;2.50;;;;;;;;;;2305664;58;21566;-76
2022/09/05 01:45:45;;;;;;;2.78;2.28;;;;;;;;;;2305391;56;21052;-77
2022/09/05 01:48:15;;;;;;;3.92;2.40;;;;;;;;;;2305797;58;21064;-74
2022/09/05 01:50:45;;;;;;;2.75;2.50;;;;;;;;;;2305566;58;21625;-74
2022/09/05 01:53:24;;;;;;;4.43;2.70;;;;;;;;;;2305674;58;21610;-73
2022/09/05 01:56:10;;;;;;;6.93;2.42;;;;;;;;;;2305338;58;21064;-71
2022/09/05 01:58:58;;;;;;;3.72;2.45;;;;;;;;;;2305930;58;21124;-71
2022/09/05 02:01:28;;;;;;;4.93;2.28;;;;;;;;;;2305669;58;21552;-74
2022/09/05 02:04:00;;;;;;;4.40;2.15;;;;;;;;;;2305703;58;21558;-74
2022/09/05 02:06:34;;;;;;;3.03;2.28;;;;;;;;;;2305119;58;21538;-74
2022/09/05 02:09:19;;;;;;;5.12;2.35;;;;;;;;;;2305766;58;21052;-74
2022/09/05 02:11:51;;;;;;;5.45;2.33;;;;;;;;;;2305468;58;21685;-74
2022/09/05 02:14:24;;;;;;;4.10;2.60;;;;;;;;;;2305597;58;21601;-74
2022/09/05 02:16:54;;;;;;;4.03;2.55;;;;;;;;;;2305225;58;21104;-74
2022/09/05 02:19:23;;;;;;;3.65;2.75;;;;;;;;;;2305794;58;21562;-76
2022/09/05 02:21:54;;;;;;;3.12;2.12;;;;;;;;;;2305226;58;21048;-77
2022/09/05 02:24:23;;;;;;;3.22;2.53;;;;;;;;;;2304856;58;21111;-75
2022/09/05 02:27:06;;;;;;;6.32;2.87;;;;;;;;;;2304261;58;21080;-74
2022/09/05 02:29:38;;;;;;;6.97;2.67;;;;;;;;;;2304996;58;22274;-74
2022/09/05 02:32:11;;;;;;;3.80;2.47;;;;;;;;;;2304814;58;21048;-74
2022/09/05 02:34:41;;;;;;;3.20;2.62;;;;;;;;;;2417068;54;21119;-77
2022/09/05 02:37:12;;;;;;;5.50;2.53;;;;;;;;;;2312100;54;21132;-75
2022/09/05 02:39:45;;;;;;;4.45;2.22;;;;;;;;;;2304760;58;21096;-77
2022/09/05 02:42:19;;;;;;;7.00;2.97;;;;;;;;;;2304901;58;22213;-77
2022/09/05 02:44:53;;;;;;;5.70;2.55;;;;;;;;;;2368661;54;21127;-71
2022/09/05 02:47:23;;;;;;;4.62;2.42;;;;;;;;;;2304217;58;21080;-73
2022/09/05 02:49:55;;;;;;;4.30;2.50;;;;;;;;;;2379445;54;21155;-76
2022/09/05 02:52:25;;;;;;;6.53;3.10;;;;;;;;;;2305081;58;22187;-77
2022/09/05 02:54:54;;;;;;;3.17;2.53;;;;;;;;;;2304735;58;21056;-77
2022/09/05 02:57:31;;;;;;;4.30;2.75;;;;;;;;;;2304252;58;21539;-77
2022/09/05 03:00:05;;;;;;;4.32;2.40;;;;;;;;;;2304736;58;21104;-76
2022/09/05 03:02:37;;;;;;;4.95;2.58;;;;;;;;;;2304689;58;21068;-74
2022/09/05 03:05:08;;;;;;;4.03;2.37;;;;;;;;;;2304594;58;21712;-71
2022/09/05 03:07:59;;;;;;;3.85;2.95;;;;;;;;;;2304308;58;21136;-74
2022/09/05 03:10:41;;;;;;;3.78;2.65;;;;;;;;;;2304488;58;21601;-76
2022/09/05 03:13:23;;;;;;;5.78;2.40;;;;;;;;;;2339760;54;21044;-76
2022/09/05 03:16:16;;;;;;;6.22;3.00;;;;;;;;;;2304275;58;21712;-71
2022/09/05 03:19:01;;;;;;;2.95;2.50;;;;;;;;;;2301825;58;21061;-74
2022/09/05 03:21:47;;;;;;;5.28;2.45;;;;;;;;;;2304859;58;21044;-74
2022/09/05 03:24:40;;;;;;;5.87;2.90;;;;;;;;;;2304719;58;21717;-77
2022/09/05 03:27:44;;;;;;;4.05;3.15;;;;;;;;;;2304387;58;21040;-77
2022/09/05 03:33:16;;;;;;;3.47;2.67;;;;;;;;;;2349851;57;22131;-73
2022/09/05 03:36:15;;;;;;;3.80;2.78;;;;;;;;;;2330673;57;22141;-74
2022/09/05 03:39:01;;;;;;;2.97;2.58;;;;;;;;;;2347822;57;21124;-73
2022/09/05 03:41:35;;;;;;;3.35;2.72;;;;;;;;;;2376590;53;21061;-71
2022/09/05 03:44:09;;;;;;;4.72;2.72;;;;;;;;;;2347735;57;21592;-71
2022/09/05 03:46:50;;;;;;;3.58;2.60;;;;;;;;;;2347566;57;22134;-74
2022/09/05 03:49:35;;;;;;;3.62;3.05;;;;;;;;;;2347857;57;21046;-74
2022/09/05 03:52:07;;;;;;;3.08;2.58;;;;;;;;;;2347820;57;21619;-74
2022/09/05 03:55:09;;;;;;;3.75;3.10;;;;;;;;;;2347882;57;21165;-72
2022/09/05 03:57:55;;;;;;;3.15;2.42;;;;;;;;;;2275721;58;21042;-76
2022/09/05 04:00:23;;;;;;;5.53;2.95;;;;;;;;;;2342942;57;21033;-75
2022/09/05 04:03:00;;;;;;;4.37;2.70;;;;;;;;;;2348229;57;21033;-75
2022/09/05 04:05:29;;;;;;;4.35;2.97;;;;;;;;;;2347345;57;21097;-76
2022/09/05 04:08:00;;;;;;;6.30;2.87;;;;;;;;;;2347885;57;21532;-76
2022/09/05 04:10:29;;;;;;;2.90;2.60;;;;;;;;;;2534143;53;21595;-76
2022/09/05 04:12:59;;;;;;;3.72;3.10;;;;;;;;;;2347825;57;21061;-73
2022/09/05 04:15:30;;;;;;;5.25;3.37;;;;;;;;;;2347347;57;21105;-73
2022/09/05 04:17:59;;;;;;;5.55;3.67;;;;;;;;;;2465270;53;21172;-75
2022/09/05 04:20:31;;;;;;;4.87;3.17;;;;;;;;;;2347707;57;21041;-76
2022/09/05 04:23:12;;;;;;;5.20;2.85;;;;;;;;;;2347927;57;21536;-76
2022/09/05 04:25:45;;;;;;;5.30;3.78;;;;;;;;;;2347182;57;21102;-76
2022/09/05 04:28:19;;;;;;;4.32;3.20;;;;;;;;;;2348038;57;21548;-76
2022/09/05 04:30:48;;;;;;;4.45;2.83;;;;;;;;;;2347903;57;21552;-76
2022/09/05 04:33:18;;;;;;;3.45;2.95;;;;;;;;;;2348076;57;21029;-76
2022/09/05 04:35:53;;;;;;;5.22;3.03;;;;;;;;;;2358781;53;21057;-75
2022/09/05 04:38:35;;;;;;;5.70;3.40;;;;;;;;;;2348197;57;21049;-73
2022/09/05 04:41:04;;;;;;;5.47;3.40;;;;;;;;;;2347849;57;21387;-74
2022/09/05 04:43:33;;;;;;;8.32;3.00;;;;;;;;;;2388799;53;21045;-75
2022/09/05 04:46:06;;;;;;;5.12;4.07;;;;;;;;;;2346352;57;21054;-75
2022/09/05 04:48:35;;;;;;;8.05;3.33;;;;;;;;;;2347551;57;21681;-75
2022/09/05 04:51:07;;;;;;;5.18;3.12;;;;;;;;;;2346742;57;21042;-76
2022/09/05 04:53:39;;;;;;;7.40;3.12;;;;;;;;;;2346987;57;21528;-76
2022/09/05 04:56:08;;;;;;;5.47;3.33;;;;;;;;;;2346271;57;21105;-75
2022/09/05 04:58:37;;;;;;;4.93;3.47;;;;;;;;;;2347122;57;21622;-75
2022/09/05 05:01:06;;;;;;;5.25;3.45;;;;;;;;;;2346907;57;21611;-76
2022/09/05 05:03:34;;;;;;;4.30;3.15;;;;;;;;;;2347097;57;22173;-76
2022/09/05 05:06:04;;;;;;;6.12;3.78;;;;;;;;;;2346322;57;21176;-74
2022/09/05 05:08:33;;;;;;;4.93;3.50;;;;;;;;;;2481536;53;21608;-76
2022/09/05 05:11:03;;;;;;;5.18;3.60;;;;;;;;;;2346655;57;21603;-75
2022/09/05 05:13:33;;;;;;;5.45;3.42;;;;;;;;;;2347146;57;21552;-76
2022/09/05 05:16:03;;;;;;;6.30;4.00;;;;;;;;;;2346473;57;21054;-74
2022/09/05 05:18:32;;;;;;;7.12;3.62;;;;;;;;;;2347136;57;21106;-76
2022/09/05 05:21:03;;;;;;;9.40;3.53;;;;;;;;;;2346673;57;21109;-76
2022/09/05 05:23:32;;;;;;;4.97;3.53;;;;;;;;;;2529299;52;21575;-76
2022/09/05 05:26:01;;;;;;;6.03;3.50;;;;;;;;;;2346215;57;21065;-75
2022/09/05 05:28:31;;;;;;;4.50;3.75;;;;;;;;;;2346978;57;21603;-76
2022/09/05 05:31:08;;;;;;;6.47;3.60;;;;;;;;;;2594326;53;21118;-75
2022/09/05 05:33:37;;;;;;;5.55;3.42;;;;;;;;;;2347270;56;21093;-76
2022/09/05 05:36:06;;;;;;;4.50;3.62;;;;;;;;;;2346393;57;21034;-74
2022/09/05 05:38:38;;;;;;;5.20;3.80;;;;;;;;;;2347179;57;21085;-75
2022/09/05 05:41:10;;;;;;;4.50;3.45;;;;;;;;;;2347066;57;21101;-75
2022/09/05 05:43:39;;;;;;;5.03;3.70;;;;;;;;;;2347047;57;21098;-76
2022/09/05 05:46:07;;;;;;;5.68;3.95;;;;;;;;;;2346606;57;21623;-75
2022/09/05 05:48:36;;;;;;;5.35;3.53;;;;;;;;;;2347035;57;21548;-75
2022/09/05 05:51:32;;;;;;;6.65;3.80;;;;;;;;;;2346712;57;21651;-75
2022/09/05 05:54:01;;;;;;;4.87;3.67;;;;;;;;;;2332174;57;21043;-75
2022/09/05 05:56:35;;;;;;;5.75;4.03;;;;;;;;;;2346091;57;21627;-76
2022/09/05 05:59:18;;;;;;;5.78;3.40;;;;;;;;;;2347116;57;21038;-75
2022/09/05 06:02:04;;;;;;;4.82;3.35;;;;;;;;;;2347106;57;21564;-73
2022/09/05 06:04:45;;;;;;;5.20;4.00;;;;;;;;;;2594352;53;21042;-73
2022/09/05 06:07:18;;;;;;;5.05;3.47;;;;;;;;;;2346663;57;21050;-75
2022/09/05 06:10:02;;;;;;;7.40;4.22;;;;;;;;;;2347349;57;21581;-75
2022/09/05 06:12:47;;;;;;;20.35;5.05;;;;;;;;;;2346753;57;21050;-75
2022/09/05 06:15:25;;;;;;;7.05;3.67;;;;;;;;;;2346807;57;21022;-74
2022/09/05 06:18:06;;;;;;;5.55;3.20;;;;;;;;;;2517055;53;21042;-75
2022/09/05 06:21:00;;;;;;;8.70;3.40;;;;;;;;;;2346987;57;21133;-72
2022/09/05 06:23:55;;;;;;;6.15;4.05;;;;;;;;;;2347084;57;21045;-72
2022/09/05 06:26:35;;;;;;;6.20;3.35;;;;;;;;;;2346129;57;21517;-75
2022/09/05 06:29:08;;;;;;;5.28;3.40;;;;;;;;;;2346758;57;21047;-75
2022/09/05 06:31:47;;;;;;;6.47;3.17;;;;;;;;;;2346995;57;21050;-75
2022/09/05 06:34:33;;;;;;;11.45;3.28;;;;;;;;;;2347074;57;21053;-74
2022/09/05 06:37:05;;;;;;;4.82;3.30;;;;;;;;;;2346268;57;21042;-74
2022/09/05 06:39:41;;;;;;;6.50;3.42;;;;;;;;;;2347036;57;21081;-74
2022/09/05 06:42:16;;;;;;;7.43;3.78;;;;;;;;;;2346870;57;21040;-75
2022/09/05 06:44:54;;;;;;;3.78;3.28;;;;;;;;;;2347075;57;21097;-75
2022/09/05 06:47:21;;;;;;;4.40;3.28;;;;;;;;;;2346465;57;21204;-75
2022/09/05 06:49:59;;;;;;;11.70;3.35;;;;;;;;;;2346925;57;22243;-75
2022/09/05 06:52:37;;;;;;;4.40;3.47;;;;;;;;;;2346723;57;21058;-75
2022/09/05 06:55:13;;;;;;;4.78;3.40;;;;;;;;;;2379957;53;21579;-76
2022/09/05 06:57:50;;;;;;;4.85;3.90;;;;;;;;;;2346510;57;21046;-75
2022/09/05 07:00:21;;;;;;;4.82;3.40;;;;;;;;;;2346893;57;21508;-75
2022/09/05 07:02:55;;;;;;;6.07;3.45;;;;;;;;;;2346619;57;21540;-75
2022/09/05 07:05:29;;;;;;;5.60;3.35;;;;;;;;;;2359818;53;21100;-75
2022/09/05 07:07:58;;;;;;;3.70;3.15;;;;;;;;;;2353509;53;21072;-75
2022/09/05 07:10:27;;;;;;;4.93;3.60;;;;;;;;;;2347195;57;21021;-75
2022/09/05 07:12:57;;;;;;;5.65;3.08;;;;;;;;;;2423352;53;21046;-72
2022/09/05 07:15:33;;;;;;;5.25;3.42;;;;;;;;;;2351989;52;21602;-77
2022/09/05 07:18:06;;;;;;;5.43;3.28;;;;;;;;;;2357118;57;21605;-77
2022/09/05 07:20:34;;;;;;;7.30;3.40;;;;;;;;;;2357928;57;21515;-77
2022/09/05 07:23:06;;;;;;;3.97;3.22;;;;;;;;;;2359193;57;21100;-77
2022/09/05 07:25:34;;;;;;;4.95;3.10;;;;;;;;;;2361883;57;21045;-77
2022/09/05 07:28:04;;;;;;;5.43;3.33;;;;;;;;;;2362565;57;21607;-77
2022/09/05 07:30:31;;;;;;;4.57;3.30;;;;;;;;;;2362620;57;21033;-77
2022/09/05 07:33:00;;;;;;;8.88;3.40;;;;;;;;;;2362217;57;21105;-77
2022/09/05 07:35:28;;;;;;;4.65;3.53;;;;;;;;;;2612538;53;21503;-77
2022/09/05 07:38:04;;;;;;;4.80;3.22;;;;;;;;;;2362401;57;21121;-77
2022/09/05 07:40:34;;;;;;;4.45;3.35;;;;;;;;;;2362544;57;21555;-77
2022/09/05 07:43:04;;;;;;;4.80;3.20;;;;;;;;;;2362104;57;21105;-77
2022/09/05 07:45:32;;;;;;;6.15;3.65;;;;;;;;;;2612620;53;21081;-77
2022/09/05 07:48:01;;;;;;;5.50;3.40;;;;;;;;;;2362414;57;22205;-77
2022/09/05 07:50:28;;;;;;;4.82;3.37;;;;;;;;;;2362411;57;21113;-77
2022/09/05 07:52:56;;;;;;;5.72;3.35;;;;;;;;;;2362302;57;21053;-77
2022/09/05 07:55:26;;;;;;;5.20;3.17;;;;;;;;;;2361947;57;21607;-77
2022/09/05 07:57:54;;;;;;;4.30;3.37;;;;;;;;;;2362111;57;21653;-77
2022/09/05 08:00:23;;;;;;;6.53;3.28;;;;;;;;;;2362329;57;21092;-77
2022/09/05 08:02:50;;;;;;;4.95;3.20;;;;;;;;;;2362494;57;21112;-77
2022/09/05 08:05:18;;;;;;;4.53;3.03;;;;;;;;;;2361859;57;21607;-77
2022/09/05 08:07:49;;;;;;;4.40;3.12;;;;;;;;;;2362724;57;21626;-77
2022/09/05 08:10:19;;;;;;;3.75;2.95;;;;;;;;;;2362510;57;21017;-77
2022/09/05 08:12:49;;;;;;;6.35;3.33;;;;;;;;;;2362208;57;21112;-77
2022/09/05 08:15:21;;;;;;;4.37;3.12;;;;;;;;;;2373079;56;21684;-77
2022/09/05 08:17:53;;;;;;;4.35;3.12;;;;;;;;;;2395785;56;21102;-77
2022/09/05 08:20:27;;;;;;;6.15;3.92;;;;;;;;;;2395976;56;21042;-77
2022/09/05 08:22:56;;;;;;;4.65;3.05;;;;;;;;;;2395870;56;21564;-77
2022/09/05 08:25:24;;;;;;;4.55;3.15;;;;;;;;;;2395455;56;21604;-77
2022/09/05 08:27:59;;;;;;;4.85;3.10;;;;;;;;;;2654040;52;21022;-77
2022/09/05 08:30:27;;;;;;;5.32;3.62;;;;;;;;;;2395943;56;21050;-77
2022/09/05 08:32:57;;;;;;;7.90;3.55;;;;;;;;;;2395923;56;21038;-77
2022/09/05 08:35:26;;;;;;;5.40;3.60;;;;;;;;;;2395517;56;21113;-77
2022/09/05 08:37:54;;;;;;;4.90;3.72;;;;;;;;;;2395939;56;21173;-77
2022/09/05 08:40:26;;;;;;;6.07;3.35;;;;;;;;;;2395777;56;21668;-77
2022/09/05 08:42:56;;;;;;;3.95;2.75;;;;;;;;;;2395823;56;21599;-77
2022/09/05 08:45:26;;;;;;;5.85;3.50;;;;;;;;;;2653904;52;21517;-77
2022/09/05 08:47:55;;;;;;;4.87;3.25;;;;;;;;;;2395975;56;21043;-77
2022/09/05 08:50:28;;;;;;;4.35;3.30;;;;;;;;;;2395675;56;21552;-77
2022/09/05 08:52:59;;;;;;;5.80;3.45;;;;;;;;;;2395609;56;21047;-77
2022/09/05 08:55:31;;;;;;;7.15;3.50;;;;;;;;;;2395704;56;21639;-77
2022/09/05 08:58:16;;;;;;;4.97;2.70;;;;;;;;;;2395896;56;21034;-77
2022/09/05 09:00:46;;;;;;;4.68;3.20;;;;;;;;;;2396045;56;21081;-77
2022/09/05 09:03:17;;;;;;;4.68;3.47;;;;;;;;;;2395554;56;21113;-77
2022/09/05 09:06:06;;;;;;;3.85;3.28;;;;;;;;;;2395272;56;21050;-77
2022/09/05 09:08:40;;;;;;;4.60;3.50;;;;;;;;;;2395615;56;22237;-77
2022/09/05 09:11:12;;;;;;;3.95;3.08;;;;;;;;;;2654184;52;21105;-77
2022/09/05 09:13:51;;;;;;;4.37;3.30;;;;;;;;;;2396017;56;21544;-77
2022/09/05 09:16:26;;;;;;;6.82;3.00;;;;;;;;;;2395627;56;21109;-77
2022/09/05 09:19:06;;;;;;;3.92;3.28;;;;;;;;;;2395907;56;21093;-77
2022/09/05 09:21:38;;;;;;;6.15;3.33;;;;;;;;;;2396134;56;21091;-77
2022/09/05 09:24:16;;;;;;;4.70;3.20;;;;;;;;;;2395555;56;22209;-77
2022/09/05 09:26:51;;;;;;;4.10;2.90;;;;;;;;;;2395491;56;21623;-77
2022/09/05 09:29:18;;;;;;;7.10;3.53;;;;;;;;;;2395992;56;21086;-77
2022/09/05 09:31:53;;;;;;;3.97;3.10;;;;;;;;;;2395891;56;21537;-77
2022/09/05 09:34:39;;;;;;;4.53;3.22;;;;;;;;;;2395969;56;21047;-77
2022/09/05 09:37:17;;;;;;;5.25;3.25;;;;;;;;;;2395399;56;21121;-77
2022/09/05 09:39:57;;;;;;;12.25;3.83;;;;;;;;;;2396027;56;21042;-77
2022/09/05 09:42:29;;;;;;;4.35;3.37;;;;;;;;;;2395927;56;21046;-77
2022/09/05 09:45:11;;;;;;;5.40;3.30;;;;;;;;;;2395725;56;21101;-77
2022/09/05 09:47:54;;;;;;;5.82;3.62;;;;;;;;;;2653935;52;21042;-77
2022/09/05 09:50:26;;;;;;;4.30;3.00;;;;;;;;;;2395928;56;21090;-77
2022/09/05 09:53:00;;;;;;;6.95;3.70;;;;;;;;;;2396034;56;21994;-77
2022/09/05 09:55:47;;;;;;;4.45;2.87;;;;;;;;;;2395112;56;21679;-77
2022/09/05 09:58:35;;;;;;;8.00;3.40;;;;;;;;;;2395680;56;21039;-77
2022/09/05 10:01:09;;;;;;;5.55;3.25;;;;;;;;;;2395889;56;21045;-77
2022/09/05 10:03:58;;;;;;;5.32;3.85;;;;;;;;;;2395747;56;21070;-77
2022/09/05 10:07:03;;;;;;;6.47;3.53;;;;;;;;;;2384699;56;21097;-77
2022/09/05 10:09:36;;;;;;;5.70;3.50;;;;;;;;;;2396075;56;21038;-77
2022/09/05 10:12:22;;;;;;;5.03;3.80;;;;;;;;;;2396231;56;21042;-77
2022/09/05 10:14:57;;;;;;;5.07;3.28;;;;;;;;;;2395840;56;21533;-77
2022/09/05 10:18:01;;;;;;;4.07;3.05;;;;;;;;;;2395181;56;21031;-77
2022/09/05 10:20:54;;;;;;;3.83;2.90;;;;;;;;;;2396121;56;21105;-77
2022/09/05 10:23:37;;;;;;;3.65;3.03;;;;;;;;;;2396126;56;21545;-77
2022/09/05 10:26:23;;;;;;;3.03;2.67;;;;;;;;;;2395702;56;21093;-77
2022/09/05 10:28:57;;;;;;;6.72;2.58;;;;;;;;;;2395636;56;21030;-77
2022/09/05 10:31:34;;;;;;;4.37;3.17;;;;;;;;;;2396212;56;21576;-77
2022/09/05 10:34:08;;;;;;;4.00;3.20;;;;;;;;;;2654009;52;21608;-77
2022/09/05 10:36:37;;;;;;;4.35;2.70;;;;;;;;;;2395267;56;21129;-77
2022/09/05 10:39:12;;;;;;;4.15;2.60;;;;;;;;;;2395935;56;21100;-77
2022/09/05 10:41:44;;;;;;;5.97;2.33;;;;;;;;;;2395685;56;21054;-77
2022/09/05 10:44:14;;;;;;;8.13;3.28;;;;;;;;;;2395956;56;21102;-77
2022/09/05 10:46:47;;;;;;;4.22;2.53;;;;;;;;;;2395316;56;21109;-77
2022/09/05 10:49:15;;;;;;;4.85;2.60;;;;;;;;;;2396271;56;21113;-77
2022/09/05 10:51:47;;;;;;;3.03;2.37;;;;;;;;;;2396024;56;21608;-77
2022/09/05 10:54:24;;;;;;;3.15;2.40;;;;;;;;;;2395775;56;21096;-77
2022/09/05 10:56:56;;;;;;;6.37;2.60;;;;;;;;;;2395642;56;21521;-77
2022/09/05 10:59:29;;;;;;;3.95;2.62;;;;;;;;;;2395910;56;21034;-77
2022/09/05 11:02:04;;;;;;;3.80;2.58;;;;;;;;;;2396020;56;21362;-77
2022/09/05 11:04:43;;;;;;;3.05;2.47;;;;;;;;;;2395853;56;21050;-77
2022/09/05 11:07:14;;;;;;;3.97;2.40;;;;;;;;;;2395319;56;21046;-77
2022/09/05 11:09:49;;;;;;;3.45;2.08;;;;;;;;;;2395830;56;21113;-77
2022/09/05 11:12:27;;;;;;;5.85;2.62;;;;;;;;;;2395686;56;21043;-77
2022/09/05 11:14:56;;;;;;;3.50;2.15;;;;;;;;;;2395630;56;21047;-77
2022/09/05 11:17:28;;;;;;;6.00;2.37;;;;;;;;;;2395487;56;21042;-77
2022/09/05 11:19:59;;;;;;;4.57;2.37;;;;;;;;;;2395628;56;21058;-77
2022/09/05 11:22:28;;;;;;;4.05;2.55;;;;;;;;;;2395944;56;21117;-77
2022/09/05 11:24:57;;;;;;;4.97;2.42;;;;;;;;;;2395686;56;21539;-77
2022/09/05 11:27:29;;;;;;;5.80;2.53;;;;;;;;;;2395198;56;22178;-77
2022/09/05 11:29:58;;;;;;;5.43;2.53;;;;;;;;;;2653971;52;21038;-77
2022/09/05 11:32:39;;;;;;;7.25;2.42;;;;;;;;;;2395610;56;21047;-77
2022/09/05 11:35:15;;;;;;;2.92;2.45;;;;;;;;;;2395646;56;21125;-77
2022/09/05 11:37:51;;;;;;;3.08;2.42;;;;;;;;;;2395895;56;21031;-77
2022/09/05 11:40:25;;;;;;;2.85;2.20;;;;;;;;;;2395935;56;21043;-77
2022/09/05 11:42:58;;;;;;;3.28;2.42;;;;;;;;;;2395308;56;21184;-77
2022/09/05 11:45:38;;;;;;;7.18;3.70;;;;;;;;;;2395325;56;21604;-77
2022/09/05 11:48:23;;;;;;;5.35;2.40;;;;;;;;;;2395827;56;21034;-77
2022/09/05 11:50:57;;;;;;;9.32;2.90;;;;;;;;;;2395750;56;21082;-77
2022/09/05 11:53:42;;;;;;;4.00;2.78;;;;;;;;;;2395828;56;21632;-77
2022/09/05 11:56:31;;;;;;;5.22;2.30;;;;;;;;;;2395518;56;21042;-77
2022/09/05 11:59:09;;;;;;;3.12;2.35;;;;;;;;;;2384637;56;21030;-77
2022/09/05 12:01:42;;;;;;;4.47;2.75;;;;;;;;;;2396073;56;21663;-77
2022/09/05 12:04:23;;;;;;;3.08;2.55;;;;;;;;;;2396202;56;21129;-77
2022/09/05 12:07:04;;;;;;;3.70;2.70;;;;;;;;;;2395295;56;21082;-77
2022/09/05 12:09:37;;;;;;;3.22;2.20;;;;;;;;;;2654584;52;21046;-77
2022/09/05 12:12:13;;;;;;;3.50;2.70;;;;;;;;;;2395877;56;21620;-77
2022/09/05 12:14:46;;;;;;;2.80;2.30;;;;;;;;;;2396167;56;21086;-77
2022/09/05 12:17:23;;;;;;;4.30;2.35;;;;;;;;;;2395920;56;21430;-77
2022/09/05 12:19:53;;;;;;;6.37;2.12;;;;;;;;;;2395883;56;21101;-77
2022/09/05 12:22:27;;;;;;;3.78;2.17;;;;;;;;;;2396261;56;21026;-77
2022/09/05 12:24:53;;;;;;;;;;;;;;;;;;2399544;56;21537;-77
2022/09/05 12:27:22;;;;;;;3.17;2.53;;;;;;;;;;2395838;56;20065;-77
2022/09/05 12:29:53;;;;;;;3.60;2.10;;;;;;;;;;2395900;56;21118;-77
2022/09/05 12:32:24;;;;;;;3.50;2.50;;;;;;;;;;2396035;56;21047;-77
2022/09/05 12:34:52;;;;;;;3.80;2.45;;;;;;;;;;2395779;56;21114;-77
2022/09/05 12:37:28;;;;;;;4.50;2.78;;;;;;;;;;2395581;56;21050;-77
2022/09/05 12:39:56;;;;;;;3.80;2.47;;;;;;;;;;2396103;56;21628;-78
2022/09/05 12:42:27;;;;;;;4.00;2.87;;;;;;;;;;2395986;56;21118;-77
2022/09/05 12:45:07;;;;;;;4.10;2.40;;;;;;;;;;2395991;56;21043;-77
2022/09/05 12:47:46;;;;;;;2.75;2.12;;;;;;;;;;2395410;56;21042;-77
2022/09/05 12:50:16;;;;;;;4.22;2.85;;;;;;;;;;2395917;56;21126;-77
2022/09/05 12:52:45;;;;;;;4.55;2.40;;;;;;;;;;2396187;56;21042;-77
2022/09/05 12:55:18;;;;;;;5.05;2.40;;;;;;;;;;2395986;56;21046;-77
2022/09/05 12:57:49;;;;;;;3.10;2.60;;;;;;;;;;2396248;56;21025;-77
2022/09/05 13:00:17;;;;;;;4.28;2.60;;;;;;;;;;2396357;56;21556;-77
2022/09/05 13:02:49;;;;;;;3.45;2.50;;;;;;;;;;2397349;56;21121;-77
2022/09/05 13:05:17;;;;;;;4.40;2.40;;;;;;;;;;2655347;52;21129;-77
2022/09/05 13:07:47;;;;;;;2.72;2.30;;;;;;;;;;2655793;52;21521;-77
2022/09/05 13:10:19;;;;;;;2.95;2.20;;;;;;;;;;2397097;56;21081;-77
2022/09/05 13:12:48;;;;;;;4.95;2.53;;;;;;;;;;2397096;56;21537;-77
2022/09/05 13:15:19;;;;;;;5.72;2.40;;;;;;;;;;2447406;54;72635;-79
2022/09/05 13:17:50;;;;;;;3.97;2.25;;;;;;;;;;2324117;58;21932;-79
2022/09/05 13:20:20;;;;;;;4.90;2.22;;;;;;;;;;2323995;58;21088;-79
2022/09/05 13:22:49;;;;;;;7.25;2.37;;;;;;;;;;2323822;58;21049;-79
2022/09/05 13:25:23;;;;;;;4.28;2.20;;;;;;;;;;2334725;57;21062;-79
2022/09/05 13:27:55;;;;;;;3.72;2.47;;;;;;;;;;2599315;53;21054;-79
2022/09/05 13:30:24;;;;;;;2.67;2.30;;;;;;;;;;2350904;57;21051;-80
2022/09/05 13:32:53;;;;;;;4.00;2.55;;;;;;;;;;2349983;57;21058;-80
2022/09/05 13:35:23;;;;;;;2.75;2.10;;;;;;;;;;2598200;53;21110;-79
2022/09/05 13:37:57;;;;;;;3.50;2.40;;;;;;;;;;2350571;57;21138;-80
2022/09/05 13:40:26;;;;;;;7.32;2.42;;;;;;;;;;2350730;57;21075;-80
2022/09/05 13:42:57;;;;;;;4.30;2.20;;;;;;;;;;2598566;53;21088;-80
2022/09/05 13:45:25;;;;;;;3.33;2.00;;;;;;;;;;2598329;53;21126;-80
2022/09/05 13:48:14;;;;;;;6.65;2.15;;;;;;;;;;2350646;57;21090;-79
2022/09/05 13:50:42;;;;;;;5.75;2.50;;;;;;;;;;2350277;57;21094;-80
2022/09/05 13:53:14;;;;;;;3.87;2.30;;;;;;;;;;2350248;57;21548;-79
2022/09/05 13:55:44;;;;;;;9.65;2.42;;;;;;;;;;2597922;53;21058;-80
2022/09/05 13:58:16;;;;;;;2.72;2.45;;;;;;;;;;2350777;57;21099;-79
2022/09/05 14:01:01;;;;;;;4.78;2.40;;;;;;;;;;2598470;53;21123;-80
2022/09/05 14:03:56;;;;;;;4.50;2.37;;;;;;;;;;2350908;57;21165;-79
2022/09/05 14:06:47;;;;;;;3.30;2.33;;;;;;;;;;2329255;57;21107;-80
2022/09/05 14:09:22;;;;;;;6.30;2.72;;;;;;;;;;2598777;53;21106;-80
2022/09/05 14:11:58;;;;;;;3.30;2.60;;;;;;;;;;2598795;53;21127;-80
2022/09/05 14:14:28;;;;;;;3.40;2.22;;;;;;;;;;2350624;57;21110;-79
2022/09/05 14:17:02;;;;;;;4.78;2.42;;;;;;;;;;2349816;57;21106;-80
2022/09/05 14:22:33;;;;;;;2.95;2.10;;;;;;;;;;2350451;57;20966;-79
2022/09/05 14:25:00;;;;;;;3.30;2.15;;;;;;;;;;2350582;57;21074;-79
2022/09/05 14:27:28;;;;;;;3.95;2.15;;;;;;;;;;2598037;53;21042;-80
2022/09/05 14:29:56;;;;;;;2.50;1.98;;;;;;;;;;2350751;57;21051;-79
2022/09/05 14:32:43;;;;;;;3.92;2.42;;;;;;;;;;2350568;57;21117;-79
2022/09/05 14:35:11;;;;;;;4.15;2.20;;;;;;;;;;2350659;57;21114;-79
2022/09/05 14:37:44;;;;;;;5.07;2.15;;;;;;;;;;2350122;57;21535;-79
2022/09/05 14:40:18;;;;;;;3.35;2.30;;;;;;;;;;2349330;57;21126;-79
2022/09/05 14:43:12;;;;;;;4.75;2.53;;;;;;;;;;2349343;57;21059;-79
2022/09/05 14:45:52;;;;;;;3.17;2.00;;;;;;;;;;2347300;57;21133;-80
2022/09/05 14:48:34;;;;;;;3.75;2.40;;;;;;;;;;2598444;53;21075;-80
2022/09/05 14:51:16;;;;;;;7.12;2.08;;;;;;;;;;2350799;57;21090;-79
2022/09/05 14:53:56;;;;;;;3.55;2.37;;;;;;;;;;2598779;53;21107;-80
2022/09/05 14:56:27;;;;;;;7.47;3.35;;;;;;;;;;2350854;57;21047;-80
2022/09/05 14:59:08;;;;;;;9.68;3.12;;;;;;;;;;2350709;57;21602;-82
2022/09/05 15:01:47;;;;;;;8.63;4.18;;;;;;;;;;2351086;57;21071;-81
2022/09/05 15:04:17;;;;;;;10.38;3.83;;;;;;;;;;2350183;57;21106;-81
2022/09/05 15:06:58;;;;;;;10.32;3.95;;;;;;;;;;2596527;53;21090;-80
2022/09/05 15:09:25;;;;;;;5.85;3.78;;;;;;;;;;2349546;57;21221;-81
2022/09/05 15:11:52;;;;;;;6.22;4.47;;;;;;;;;;2350043;57;21063;-81
2022/09/05 15:14:26;;;;;;;4.32;3.70;;;;;;;;;;2597239;53;21098;-81
2022/09/05 15:16:57;;;;;;;9.48;3.75;;;;;;;;;;2349138;57;21047;-80
2022/09/05 15:19:45;;;;;;;6.85;4.10;;;;;;;;;;2349753;57;21043;-80
2022/09/05 15:22:24;;;;;;;7.85;3.95;;;;;;;;;;2596785;53;21134;-84
2022/09/05 15:25:05;;;;;;;8.23;4.20;;;;;;;;;;2349355;57;21521;-81
2022/09/05 15:27:32;;;;;;;5.97;4.20;;;;;;;;;;2348911;57;21113;-82
2022/09/05 15:30:01;;;;;;;4.57;3.87;;;;;;;;;;2349488;57;21055;-80
2022/09/05 15:32:29;;;;;;;7.45;3.65;;;;;;;;;;2596416;53;21047;-78
2022/09/05 15:34:56;;;;;;;7.40;3.97;;;;;;;;;;2596642;53;21121;-80
2022/09/05 15:37:26;;;;;;;7.62;3.92;;;;;;;;;;2596096;53;21630;-80